Flight Track Log - Related Links

Times and Time Zones

All times are in EDT time to prevent confusion due to time zone crossing. See the N508QS flight status page for this flight to view local times or setup timezone preferences in your user account.

Time Position Orientation Groundspeed Altitude Reporting Facility
EDT Latitude Longitude Course Direction KTS MPH feet Rate Location/Type
Mon 08:39:29 PM 41.1000 -73.7333 27° Northeast 198 228 1,900  Level New York TRACON
Mon 08:40:29 PM 41.1500 -73.7000 27° Northeast 224 258 3,600 2,053 Climbing New York TRACON
Mon 08:41:23 PM 41.2167 -73.6500 29° Northeast 280 322 5,800 2,165 Climbing New York TRACON
Mon 08:43:43 PM 41.2997 -73.4403 62° Northeast 288 331 10,600 2,010 Climbing Boston Center
Mon 08:44:43 PM 41.2778 -73.3406 106° East 284 327 12,500 1,950 Climbing Boston Center
Mon 08:45:43 PM 41.3328 -73.2253 58° Northeast 314 361 14,500 1,850 Climbing Boston Center
Mon 08:46:43 PM 41.3939 -73.1153 53° Northeast 377 434 16,200 2,200 Climbing Boston Center
Mon 08:47:43 PM 41.4572 -72.9719 59° Northeast 411 473 18,900 1,500 Climbing Boston Center
Mon 08:48:43 PM 41.5181 -72.8283 60° Northeast 426 490 19,200 1,100 Climbing Boston Center
Mon 08:49:43 PM 41.5728 -72.7064 59° Northeast 431 496 21,100 1,750 Climbing Boston Center
Mon 08:50:43 PM 41.6356 -72.5622 60° Northeast 438 504 22,700 1,450 Climbing Boston Center
Mon 08:51:43 PM 41.6981 -72.4150 56° Northeast 443 510 24,000 1,650 Climbing Boston Center
Mon 08:52:00 PM 41.7241 -72.3185 56° Northeast  Level FlightAware Approximate
Mon 08:52:43 PM 41.7708 -72.2397 61° Northeast 464 534 26,000  Level Boston Center
Mon 08:53:43 PM 41.8350 -72.0694 63° Northeast 487 560 27,000 1,100 Climbing Boston Center
Mon 08:54:43 PM 41.9031 -71.8906 63° Northeast 515 593 28,200 1,400 Climbing Boston Center
Mon 08:55:43 PM 41.9728 -71.7000 64° Northeast 539 620 29,800 1,450 Climbing Boston Center
Mon 08:56:43 PM 42.0344 -71.5542 60° Northeast 545 627 31,100 1,800 Climbing Boston Center
Mon 08:57:43 PM 42.1156 -71.3233 65° Northeast 554 638 33,400 2,300 Climbing Boston Center
Mon 08:58:43 PM 42.1844 -71.1372 63° Northeast 554 638 35,700 1,800 Climbing Boston Center
Mon 08:59:43 PM 42.2347 -70.9903 65° Northeast 549 632 37,000 650 Climbing Boston Center
Mon 09:00:43 PM 42.3108 -70.7669 65° Northeast 539 620 37,000 300 Level Boston Center
Mon 09:01:43 PM 42.3769 -70.5794 64° Northeast 539 620 37,600 1,050 Climbing Boston Center
Mon 09:02:43 PM 42.4444 -70.3919 64° Northeast 544 626 39,100 1,150 Climbing Boston Center
Mon 09:03:43 PM 42.5078 -70.2067 65° Northeast 544 626 39,900 750 Climbing Boston Center
Mon 09:04:43 PM 42.5747 -70.0208 64° Northeast 544 626 40,600 550 Climbing Boston Center
Mon 09:05:43 PM 42.6414 -69.8264 65° Northeast 549 632 41,000 200 Climbing Boston Center
Mon 09:06:43 PM 42.7036 -69.6400 66° East 543 625 41,000  Level Boston Center
Mon 09:07:43 PM 42.7561 -69.4906 64° Northeast 543 625 41,000  Level Boston Center
Mon 09:08:40 PM 42.8000 -69.3000 73° East 540 621 41,000  Level Moncton Center
Mon 09:09:40 PM 42.8833 -69.1000 60° Northeast 540 621 41,000  Level Moncton Center
Mon 09:10:40 PM 42.9167 -68.9167 76° East 540 621 41,000  Level Moncton Center
Mon 09:11:40 PM 43.0000 -68.7167 60° Northeast 540 621 41,000  Level Moncton Center
Mon 09:12:40 PM 43.0500 -68.5333 69° East 540 621 41,000  Level Moncton Center
Mon 09:13:40 PM 43.1333 -68.3333 60° Northeast 540 621 41,000  Level Moncton Center
Mon 09:14:40 PM 43.1833 -68.1500 69° East 540 621 41,000  Level Moncton Center
Mon 09:15:40 PM 43.2500 -67.9667 63° Northeast 540 621 41,000  Level Moncton Center
Mon 09:16:40 PM 43.3000 -67.7667 71° East 540 621 41,000  Level Moncton Center
Mon 09:17:40 PM 43.3667 -67.6000 61° Northeast 540 621 41,000  Level Moncton Center
Mon 09:17:55 PM 43.3919 -67.5503 55° Northeast 529 609 41,000  Level Boston Center
Mon 09:18:55 PM 43.4525 -67.3622 66° East 529 609 41,000  Level Boston Center
Mon 09:19:55 PM 43.5108 -67.1742 67° East 529 609 41,000  Level Boston Center
Mon 09:20:40 PM 43.5333 -67.0167 79° East 530 610 41,000  Level Moncton Center
Mon 09:21:40 PM 43.6000 -66.8500 61° Northeast 530 610 41,000  Level Moncton Center
Mon 09:22:40 PM 43.7000 -66.6667 53° Northeast 540 621 41,000  Level Moncton Center
Mon 09:23:40 PM 43.7667 -66.4833 63° Northeast 540 621 41,000  Level Moncton Center
Mon 09:24:40 PM 43.8500 -66.3000 58° Northeast 550 633 41,000  Level Moncton Center
Mon 09:25:40 PM 43.9167 -66.1333 60° Northeast 540 621 41,000  Level Moncton Center
Mon 09:26:00 PM 43.9498 -66.0621 60° Northeast  Level FlightAware Approximate
Mon 09:26:40 PM 44.0000 -65.9333 60° Northeast 540 621 41,000  Level Moncton Center
Mon 09:27:40 PM 44.0833 -65.7667 55° Northeast 540 621 41,000  Level Moncton Center
Mon 09:28:40 PM 44.1500 -65.5833 63° Northeast 540 621 41,000  Level Moncton Center
Mon 09:29:40 PM 44.2167 -65.4000 63° Northeast 540 621 41,000  Level Moncton Center
Mon 09:31:00 PM 44.3396 -65.0992 60° Northeast  Level FlightAware Approximate
Mon 09:31:20 PM 44.3500 -65.0833 60° Northeast 550 633 41,000  Level Gander Center
Mon 09:32:20 PM 44.4167 -64.9000 63° Northeast 560 644 41,000  Level Gander Center
Mon 09:32:40 PM 44.4333 -64.8500 65° Northeast 560 644 41,000  Level Moncton Center
Mon 09:33:40 PM 44.5167 -64.6500 60° Northeast 550 633 41,000  Level Moncton Center
Mon 09:34:40 PM 44.6000 -64.4667 57° Northeast 550 633 41,000  Level Moncton Center
Mon 09:35:40 PM 44.6667 -64.2833 63° Northeast 550 633 41,000  Level Moncton Center
Mon 09:36:40 PM 44.7500 -64.0667 62° Northeast 550 633 41,000  Level Moncton Center
Mon 09:37:40 PM 44.8167 -63.9000 61° Northeast 550 633 41,000  Level Moncton Center
Mon 09:38:40 PM 44.8833 -63.7167 63° Northeast 550 633 41,000  Level Moncton Center
Mon 09:39:40 PM 44.9667 -63.5000 61° Northeast 560 644 41,000  Level Moncton Center
Mon 09:40:40 PM 45.0333 -63.3167 63° Northeast 560 644 41,000  Level Moncton Center
Mon 09:41:40 PM 45.1167 -63.1333 57° Northeast 550 633 41,000  Level Moncton Center
Mon 09:42:40 PM 45.1833 -62.9333 65° Northeast 550 633 41,000  Level Moncton Center
Mon 09:43:40 PM 45.2667 -62.7500 57° Northeast 550 633 41,000  Level Moncton Center
Mon 09:44:40 PM 45.3333 -62.5333 66° East 550 633 41,000  Level Moncton Center
Mon 09:45:40 PM 45.3833 -62.3500 69° East 550 633 41,000  Level Moncton Center
Mon 09:46:40 PM 45.4667 -62.1500 59° Northeast 550 633 41,000  Level Moncton Center
Mon 09:47:40 PM 45.5333 -61.9667 63° Northeast 540 621 41,000  Level Moncton Center
Mon 09:48:40 PM 45.6167 -61.7667 59° Northeast 540 621 41,000  Level Moncton Center
Mon 09:49:40 PM 45.6667 -61.6000 67° East 550 633 41,000  Level Moncton Center
Mon 09:50:40 PM 45.7500 -61.3833 61° Northeast 550 633 41,000  Level Moncton Center
Mon 09:51:40 PM 45.8167 -61.2000 62° Northeast 550 633 41,000  Level Moncton Center
Mon 09:52:40 PM 45.8833 -60.9833 66° East 550 633 41,000  Level Moncton Center
Mon 09:53:40 PM 45.9500 -60.8167 60° Northeast 550 633 41,000  Level Moncton Center
Mon 09:54:40 PM 46.0167 -60.5833 68° East 540 621 41,000  Level Moncton Center
Mon 09:55:40 PM 46.0833 -60.4167 60° Northeast 550 633 41,000  Level Moncton Center
Mon 09:56:40 PM 46.1500 -60.2167 64° Northeast 550 633 41,000  Level Moncton Center
Mon 09:57:40 PM 46.2167 -60.0167 64° Northeast 540 621 41,000  Level Moncton Center
Mon 09:58:40 PM 46.2833 -59.8167 64° Northeast 540 621 41,000  Level Moncton Center
Mon 09:59:40 PM 46.3500 -59.6167 64° Northeast 540 621 41,000  Level Moncton Center
Mon 10:00:40 PM 46.4167 -59.4167 64° Northeast 550 633 41,000  Level Moncton Center
Mon 10:01:40 PM 46.4833 -59.2167 64° Northeast 550 633 41,000  Level Moncton Center
Mon 10:02:40 PM 46.5500 -59.0167 64° Northeast 540 621 41,000  Level Moncton Center
Mon 10:03:40 PM 46.6000 -58.8167 70° East 550 633 41,000  Level Moncton Center
Mon 10:04:20 PM 46.6500 -58.7000 58° Northeast 550 633 41,000  Level Gander Center
Mon 10:04:40 PM 46.6833 -58.6167 60° Northeast 550 633 41,000  Level Moncton Center
Mon 10:05:40 PM 46.7333 -58.4167 70° East 550 633 41,000  Level Moncton Center
Mon 10:06:40 PM 46.8000 -58.2000 66° East 550 633 41,000  Level Moncton Center
Mon 10:07:40 PM 46.8667 -58.0000 64° Northeast 560 644 41,000  Level Moncton Center
Mon 10:08:20 PM 46.9167 -57.8667 61° Northeast 560 644 41,000  Level Gander Center
Mon 10:09:40 PM 47.0000 -57.6000 65° Northeast 550 633 41,000  Level Moncton Center
Mon 10:10:40 PM 47.0500 -57.3833 71° East 560 644 41,000  Level Moncton Center
Mon 10:11:40 PM 47.1167 -57.1667 66° East 550 633 41,000  Level Moncton Center
Mon 10:12:20 PM 47.1667 -57.0333 61° Northeast 570 656 41,000  Level Gander Center
Mon 10:13:20 PM 47.2167 -56.8333 70° East 560 644 41,000  Level Gander Center
Mon 10:14:20 PM 47.2833 -56.6000 67° East 560 644 41,000  Level Gander Center
Mon 10:14:40 PM 47.3167 -56.5333 54° Northeast 560 644 41,000  Level Moncton Center
Mon 10:15:40 PM 47.3667 -56.3333 70° East 560 644 41,000  Level Moncton Center
Mon 10:16:40 PM 47.4333 -56.1167 65° Northeast 560 644 41,000  Level Moncton Center
Mon 10:17:40 PM 47.4833 -55.9167 70° East 570 656 41,000  Level Moncton Center
Mon 10:18:20 PM 47.5333 -55.7667 64° Northeast 560 644 41,000  Level Gander Center
Mon 10:19:40 PM 47.6000 -55.4667 72° East 560 644 41,000  Level Moncton Center
Mon 10:20:40 PM 47.6667 -55.2667 64° Northeast 560 644 41,000  Level Moncton Center
Mon 10:21:20 PM 47.7167 -55.1167 64° Northeast 560 644 41,000  Level Gander Center
Mon 10:22:20 PM 47.7667 -54.9167 70° East 560 644 41,000  Level Gander Center
Mon 10:23:40 PM 47.8500 -54.6000 68° East 560 644 41,000  Level Moncton Center
Mon 10:24:20 PM 47.8833 -54.4667 70° East 560 644 41,000  Level Gander Center
Mon 10:25:20 PM 47.9500 -54.2667 63° Northeast 560 644 41,000  Level Gander Center
Mon 10:27:00 PM 48.0333 -53.9000 71° East 560 644 41,000 250 Level Gander Center
Mon 10:27:20 PM 48.0500 -53.8333 69° East 560 644 41,500  Climbing Gander Center
Mon 10:28:20 PM 48.1000 -53.6167 71° East 560 644 41,000 -250 Descending Gander Center
Mon 10:29:20 PM 48.1667 -53.3833 67° East 560 644 41,000  Level Gander Center
Mon 10:30:20 PM 48.2167 -53.1667 71° East 560 644 41,000  Level Gander Center
Mon 10:31:20 PM 48.2667 -52.9667 69° East 570 656 41,000  Level Gander Center
Mon 10:31:40 PM 48.3000 -52.8667 63° Northeast 560 644 41,000  Level Moncton Center
Mon 10:32:40 PM 48.3500 -52.6500 71° East 560 644 41,000  Level Moncton Center
Mon 10:33:00 PM 48.3667 -52.6000 63° Northeast 560 644 41,000  Level Gander Center
Mon 10:34:00 PM 48.4333 -52.3500 68° East 570 656 41,000  Level Gander Center
Mon 10:34:40 PM 48.4667 -52.2167 69° East 560 644 41,000  Level Moncton Center
Mon 10:35:40 PM 48.5000 -52.0000 77° East 560 644 41,000  Level Moncton Center
Mon 10:36:40 PM 48.5667 -51.7667 67° East 570 656 41,000  Level Moncton Center
Mon 10:37:40 PM 48.6000 -51.5500 77° East 570 656 41,000  Level Moncton Center
Mon 10:38:20 PM 48.6500 -51.4000 63° Northeast 570 656 41,000  Level Gander Center
Mon 10:39:20 PM 48.7000 -51.1833 71° East 570 656 41,000  Level Gander Center
Mon 10:40:40 PM 48.7833 -50.8667 68° East 560 644 41,000  Level Moncton Center
Mon 10:41:40 PM 48.8167 -50.6500 77° East 560 644 41,000  Level Moncton Center
Mon 10:42:40 PM 48.8833 -50.4167 66° East 570 656 41,000  Level Moncton Center
Mon 10:43:40 PM 48.9167 -50.2000 77° East 570 656 41,000  Level Moncton Center
Mon 10:44:20 PM 48.9667 -50.0500 63° Northeast 570 656 41,000  Level Gander Center
Mon 10:45:00 PM 49.0000 -50.0000 69° East 576 663 41,000  Level ETMS Enhanced Traffic Management System
Mon 10:45:20 PM 49.0000 -49.8167 69° East 570 656 41,000 44 Level Gander Center
Mon 10:47:00 PM 49.0579 -49.6093 67° East  Level FlightAware Approximate
Mon 10:54:00 PM 49.4378 -48.1336 70° East  Level FlightAware Approximate
Mon 10:55:00 PM 49.4877 -47.9196 70° East  Level FlightAware Approximate
Mon 10:56:00 PM 49.5372 -47.7051 70° East  Level FlightAware Approximate
Mon 10:57:00 PM 49.5863 -47.4902 71° East  Level FlightAware Approximate
Mon 10:58:00 PM 49.6350 -47.2748 71° East  Level FlightAware Approximate
Mon 10:59:00 PM 49.6833 -47.0591 71° East  Level FlightAware Approximate
Mon 11:00:00 PM 49.7312 -46.8428 71° East  Level FlightAware Approximate
Mon 11:01:00 PM 49.7786 -46.6262 71° East  Level FlightAware Approximate
Mon 11:02:00 PM 49.8257 -46.4092 71° East  Level FlightAware Approximate
Mon 11:03:00 PM 49.8724 -46.1917 72° East  Level FlightAware Approximate
Mon 11:04:00 PM 49.9187 -45.9738 72° East  Level FlightAware Approximate
Mon 11:05:00 PM 49.9646 -45.7555 72° East  Level FlightAware Approximate
Mon 11:06:00 PM 50.0100 -45.5368 72° East  Level FlightAware Approximate
Mon 11:07:00 PM 50.0550 -45.3176 72° East  Level FlightAware Approximate
Mon 11:08:00 PM 50.0997 -45.0981 72° East  Level FlightAware Approximate
Mon 11:09:00 PM 50.1439 -44.8782 73° East  Level FlightAware Approximate
Mon 11:10:00 PM 50.1877 -44.6578 73° East  Level FlightAware Approximate
Mon 11:11:00 PM 50.2311 -44.4370 73° East  Level FlightAware Approximate
Mon 11:12:00 PM 50.2740 -44.2159 73° East  Level FlightAware Approximate
Mon 11:13:00 PM 50.3166 -43.9943 73° East  Level FlightAware Approximate
Mon 11:14:00 PM 50.3587 -43.7724 73° East  Level FlightAware Approximate
Mon 11:15:00 PM 50.4004 -43.5500 74° East  Level FlightAware Approximate
Mon 11:16:00 PM 50.4416 -43.3273 74° East  Level FlightAware Approximate
Mon 11:17:00 PM 50.4825 -43.1042 74° East  Level FlightAware Approximate
Mon 11:18:00 PM 50.5229 -42.8807 74° East  Level FlightAware Approximate
Mon 11:19:00 PM 50.5629 -42.6568 74° East  Level FlightAware Approximate
Mon 11:20:00 PM 50.6025 -42.4326 74° East  Level FlightAware Approximate
Mon 11:21:00 PM 50.6416 -42.2079 75° East  Level FlightAware Approximate
Mon 11:22:00 PM 50.6803 -41.9829 75° East  Level FlightAware Approximate
Mon 11:23:00 PM 50.7185 -41.7575 75° East  Level FlightAware Approximate
Mon 11:24:00 PM 50.7564 -41.5318 75° East  Level FlightAware Approximate
Mon 11:25:00 PM 50.7938 -41.3057 75° East  Level FlightAware Approximate
Mon 11:26:00 PM 50.8307 -41.0792 75° East  Level FlightAware Approximate
Mon 11:27:00 PM 50.8672 -40.8524 76° East  Level FlightAware Approximate
Mon 11:28:00 PM 50.9033 -40.6252 76° East  Level FlightAware Approximate
Mon 11:29:00 PM 50.9389 -40.3977 76° East  Level FlightAware Approximate
Mon 11:30:00 PM 50.9741 -40.1698 76° East  Level FlightAware Approximate
Mon 11:30:00 PM 51.0000 -40.0000 77° East 581 669 43,000  Level ETMS Enhanced Traffic Management System
Mon 11:31:00 PM 51.0083 -39.9413 77° East  Level FlightAware Approximate
Mon 11:32:00 PM 51.0402 -39.7119 77° East  Level FlightAware Approximate
Mon 11:33:00 PM 51.0717 -39.4822 78° East  Level FlightAware Approximate
Mon 11:34:00 PM 51.1027 -39.2522 78° East  Level FlightAware Approximate
Mon 11:35:00 PM 51.1334 -39.0219 78° East  Level FlightAware Approximate
Mon 11:36:00 PM 51.1635 -38.7912 78° East  Level FlightAware Approximate
Mon 11:37:00 PM 51.3370 -37.4804 79° East 581 669 43,000  Level FlightAware Transoceanic
Mon 11:38:00 PM 51.3677 -37.2265 79° East 581 669 43,000  Level FlightAware Transoceanic
Mon 11:39:00 PM 51.3978 -36.9722 79° East 581 669 43,000  Level FlightAware Transoceanic
Mon 11:40:00 PM 51.4274 -36.7176 80° East 581 669 43,000  Level FlightAware Transoceanic
Mon 11:41:00 PM 51.4565 -36.4627 80° East 581 669 43,000  Level FlightAware Transoceanic
Mon 11:42:00 PM 51.4850 -36.2074 80° East 581 669 43,000  Level FlightAware Transoceanic
Mon 11:43:00 PM 51.5129 -35.9519 80° East 581 669 43,000  Level FlightAware Transoceanic
Mon 11:44:00 PM 51.5403 -35.6960 80° East 581 669 43,000  Level FlightAware Transoceanic
Mon 11:45:00 PM 51.5672 -35.4398 81° East 581 669 43,000  Level FlightAware Transoceanic
Mon 11:46:00 PM 51.5934 -35.1833 81° East 581 669 43,000  Level FlightAware Transoceanic
Mon 11:47:00 PM 51.6191 -34.9266 81° East 581 669 43,000  Level FlightAware Transoceanic
Mon 11:48:00 PM 51.6443 -34.6695 81° East 581 669 43,000  Level FlightAware Transoceanic
Mon 11:49:00 PM 51.6689 -34.4122 81° East 581 669 43,000  Level FlightAware Transoceanic
Mon 11:50:00 PM 51.6929 -34.1545 82° East 581 669 43,000  Level FlightAware Transoceanic
Mon 11:51:00 PM 51.7164 -33.8967 82° East 581 669 43,000  Level FlightAware Transoceanic
Mon 11:52:00 PM 51.7393 -33.6385 82° East 581 669 43,000  Level FlightAware Transoceanic
Mon 11:53:00 PM 51.7616 -33.3801 82° East 581 669 43,000  Level FlightAware Transoceanic
Mon 11:54:00 PM 51.7834 -33.1214 82° East 581 669 43,000  Level FlightAware Transoceanic
Mon 11:55:00 PM 51.8046 -32.8625 83° East 581 669 43,000  Level FlightAware Transoceanic
Mon 11:56:00 PM 51.8252 -32.6034 83° East 581 669 43,000  Level FlightAware Transoceanic
Mon 11:57:00 PM 51.8453 -32.3440 83° East 581 669 43,000  Level FlightAware Transoceanic
Mon 11:58:00 PM 51.8648 -32.0844 83° East 581 669 43,000  Level FlightAware Transoceanic
Mon 11:59:00 PM 51.8837 -31.8245 83° East 581 669 43,000  Level FlightAware Transoceanic
Tue 12:00:00 AM 51.9020 -31.5645 84° East 581 669 43,000  Level FlightAware Transoceanic
Tue 12:01:00 AM 51.9198 -31.3042 84° East 581 669 43,000  Level FlightAware Transoceanic
Tue 12:02:00 AM 51.9370 -31.0438 84° East 581 669 43,000  Level FlightAware Transoceanic
Tue 12:03:00 AM 51.9536 -30.7831 84° East 581 669 43,000  Level FlightAware Transoceanic
Tue 12:04:00 AM 51.9696 -30.5222 84° East 581 669 43,000  Level FlightAware Transoceanic
Tue 12:05:00 AM 51.9851 -30.2612 85° East 581 669 43,000  Level FlightAware Transoceanic
Tue 12:06:00 AM 51.9988 -30.0222 85° East  Level FlightAware Approximate
Tue 12:07:00 AM 52.0119 -29.7831 85° East  Level FlightAware Approximate
Tue 12:08:00 AM 52.0275 -29.8097 77° East  Level FlightAware Approximate
Tue 12:08:00 AM 52.0000 -30.0000 77° East 568 654 43,000  Level ETMS Enhanced Traffic Management System
Tue 12:09:00 AM 52.0608 -29.5756 77° East  Level FlightAware Approximate
Tue 12:10:00 AM 52.0937 -29.3411 77° East  Level FlightAware Approximate
Tue 12:11:00 AM 52.1261 -29.1063 77° East  Level FlightAware Approximate
Tue 12:12:00 AM 52.1580 -28.8712 77° East  Level FlightAware Approximate
Tue 12:13:00 AM 52.1895 -28.6357 78° East  Level FlightAware Approximate
Tue 12:14:00 AM 52.2410 -28.2414 78° East 568 654 43,000  Level FlightAware Transoceanic
Tue 12:15:00 AM 52.2733 -27.9886 78° East 568 654 43,000  Level FlightAware Transoceanic
Tue 12:16:00 AM 52.3051 -27.7355 79° East 568 654 43,000  Level FlightAware Transoceanic
Tue 12:17:00 AM 52.3363 -27.4820 79° East 568 654 43,000  Level FlightAware Transoceanic
Tue 12:18:00 AM 52.3669 -27.2282 79° East 568 654 43,000  Level FlightAware Transoceanic
Tue 12:19:00 AM 52.3970 -26.9740 79° East 568 654 43,000  Level FlightAware Transoceanic
Tue 12:20:00 AM 52.4266 -26.7195 79° East 568 654 43,000  Level FlightAware Transoceanic
Tue 12:21:00 AM 52.4556 -26.4646 80° East 568 654 43,000  Level FlightAware Transoceanic
Tue 12:22:00 AM 52.4841 -26.2094 80° East 568 654 43,000  Level FlightAware Transoceanic
Tue 12:23:00 AM 52.5120 -25.9539 80° East 568 654 43,000  Level FlightAware Transoceanic
Tue 12:24:00 AM 52.5394 -25.6980 80° East 568 654 43,000  Level FlightAware Transoceanic
Tue 12:25:00 AM 52.5662 -25.4418 80° East 568 654 43,000  Level FlightAware Transoceanic
Tue 12:27:19 AM 52.6263 -24.8472 81° East 568 654 43,000  Level FlightAware Transoceanic
Tue 12:29:00 AM 52.6680 -24.4141 81° East 568 654 43,000  Level FlightAware Transoceanic
Tue 12:30:00 AM 52.6920 -24.1565 81° East 568 654 43,000  Level FlightAware Transoceanic
Tue 12:31:00 AM 52.7155 -23.8985 82° East 568 654 43,000  Level FlightAware Transoceanic
Tue 12:32:00 AM 52.7384 -23.6403 82° East 568 654 43,000  Level FlightAware Transoceanic
Tue 12:33:00 AM 52.7608 -23.3818 82° East 568 654 43,000  Level FlightAware Transoceanic
Tue 12:34:00 AM 52.7826 -23.1231 82° East 568 654 43,000  Level FlightAware Transoceanic
Tue 12:35:00 AM 52.8038 -22.8641 82° East 568 654 43,000  Level FlightAware Transoceanic
Tue 12:36:00 AM 52.8245 -22.6048 83° East 568 654 43,000  Level FlightAware Transoceanic
Tue 12:37:00 AM 52.8446 -22.3453 83° East 568 654 43,000  Level FlightAware Transoceanic
Tue 12:38:00 AM 52.8642 -22.0856 83° East 568 654 43,000  Level FlightAware Transoceanic
Tue 12:39:00 AM 52.8831 -21.8256 83° East 568 654 43,000  Level FlightAware Transoceanic
Tue 12:40:00 AM 52.9015 -21.5655 83° East 568 654 43,000  Level FlightAware Transoceanic
Tue 12:41:00 AM 52.9194 -21.3051 84° East 568 654 43,000  Level FlightAware Transoceanic
Tue 12:42:00 AM 52.9366 -21.0444 84° East 568 654 43,000  Level FlightAware Transoceanic
Tue 12:43:00 AM 52.9533 -20.7836 84° East 568 654 43,000  Level FlightAware Transoceanic
Tue 12:44:00 AM 52.9695 -20.5226 84° East 568 654 43,000  Level FlightAware Transoceanic
Tue 12:45:00 AM 52.9850 -20.2614 84° East 568 654 43,000  Level FlightAware Transoceanic
Tue 12:46:00 AM 52.9991 -20.0170 84° East  Level FlightAware Approximate
Tue 12:47:00 AM 53.0125 -19.7724 85° East  Level FlightAware Approximate
Tue 12:48:00 AM 52.9993 -19.7885 90° East  Level FlightAware Approximate
Tue 12:49:00 AM 52.9981 -19.5430 90° East  Level FlightAware Approximate
Tue 12:50:00 AM 52.9963 -19.2974 91° East  Level FlightAware Approximate
Tue 12:51:00 AM 52.9940 -19.0519 91° East  Level FlightAware Approximate
Tue 12:52:00 AM 52.9913 -18.8064 91° East  Level FlightAware Approximate
Tue 12:53:00 AM 52.9880 -18.5609 91° East  Level FlightAware Approximate
Tue 12:54:00 AM 52.9842 -18.3155 91° East  Level FlightAware Approximate
Tue 12:55:00 AM 52.9799 -18.0702 92° East  Level FlightAware Approximate
Tue 12:56:00 AM 52.9751 -17.8248 92° East  Level FlightAware Approximate
Tue 12:57:00 AM 52.9698 -17.5796 92° East  Level FlightAware Approximate
Tue 12:58:00 AM 52.9640 -17.3344 92° East  Level FlightAware Approximate
Tue 12:59:00 AM 52.9577 -17.0893 92° East  Level FlightAware Approximate
Tue 01:00:00 AM 52.9509 -16.8442 93° East  Level FlightAware Approximate
Tue 01:01:00 AM 52.9436 -16.5992 93° East  Level FlightAware Approximate
Tue 01:02:00 AM 52.9357 -16.3543 93° East  Level FlightAware Approximate
Tue 01:03:00 AM 52.9274 -16.1095 93° East  Level FlightAware Approximate
Tue 01:04:00 AM 52.9186 -15.8648 93° East  Level FlightAware Approximate
Tue 01:05:00 AM 52.9093 -15.6202 94° East  Level FlightAware Approximate
Tue 01:06:00 AM 52.8994 -15.3757 94° East  Level FlightAware Approximate
Tue 01:07:00 AM 52.8891 -15.1314 94° East  Level FlightAware Approximate
Tue 01:08:00 AM 52.8787 -14.8871 94° East  Level FlightAware Approximate
Tue 01:09:00 AM 52.8683 -14.6428 94° East  Level FlightAware Approximate
Tue 01:10:00 AM 52.8573 -14.3987 94° East  Level FlightAware Approximate
Tue 01:11:00 AM 52.8459 -14.1547 94° East  Level FlightAware Approximate
Tue 01:12:00 AM 52.8340 -13.9108 95° East  Level FlightAware Approximate
Tue 01:13:00 AM 52.8216 -13.6671 95° East  Level FlightAware Approximate
Tue 01:14:00 AM 52.8087 -13.4235 95° East  Level FlightAware Approximate
Tue 01:15:00 AM 52.7953 -13.1800 95° East  Level FlightAware Approximate
Tue 01:16:00 AM 52.7814 -12.9368 95° East  Level FlightAware Approximate
Tue 01:17:00 AM 52.7669 -12.6936 95° East  Level FlightAware Approximate
Tue 01:18:00 AM 52.7520 -12.4507 96° East  Level FlightAware Approximate
Tue 01:19:00 AM 52.7366 -12.2079 96° East  Level FlightAware Approximate
Tue 01:20:00 AM 52.7207 -11.9652 96° East  Level FlightAware Approximate
Tue 01:21:00 AM 52.7044 -11.7228 96° East  Level FlightAware Approximate
Tue 01:22:00 AM 52.6875 -11.4805 96° East  Level FlightAware Approximate
Tue 01:23:00 AM 52.6701 -11.2384 97° East  Level FlightAware Approximate
Tue 01:24:00 AM 52.6522 -10.9966 97° East  Level FlightAware Approximate
Tue 01:25:00 AM 52.6339 -10.7549 97° East  Level FlightAware Approximate
Tue 01:26:00 AM 52.6150 -10.5134 97° East  Level FlightAware Approximate
Tue 01:27:00 AM 52.5957 -10.2722 97° East  Level FlightAware Approximate
Tue 01:28:00 AM 52.5758 -10.0311 98° East  Level FlightAware Approximate
Tue 01:29:00 AM 52.5555 -9.7903 98° East  Level FlightAware Approximate
Tue 01:30:00 AM 52.5347 -9.5497 98° East  Level FlightAware Approximate
Tue 01:31:00 AM 52.5134 -9.3093 98° East  Level FlightAware Approximate
Tue 01:31:50 AM 52.5002 -8.9689 98° East 502 578 43,000  Level FlightAware UK
Tue 01:32:20 AM 52.4891 -8.8592 99° East 496 571 43,000 -800 Level FlightAware UK
Tue 01:32:50 AM 52.4764 -8.7483 101° East 488 562 42,200 -1,500 Descending FlightAware UK
Tue 01:33:20 AM 52.4641 -8.6402 101° East 470 541 41,500 -1,500 Descending FlightAware UK
Tue 01:33:50 AM 52.4521 -8.5345 100° East 476 548 40,700 -1,500 Descending FlightAware UK
Tue 01:34:20 AM 52.4397 -8.4275 101° East 480 552 40,000 -1,500 Descending FlightAware UK
Tue 01:34:50 AM 52.4272 -8.3190 101° East 482 555 39,200 -1,500 Descending FlightAware UK
Tue 01:35:20 AM 52.4145 -8.2110 101° East 464 534 38,500 -1,500 Descending FlightAware UK
Tue 01:35:50 AM 52.4018 -8.1012 101° East 490 564 37,700 -1,146 Descending FlightAware UK
Tue 01:40:08 AM 52.2894 -7.1874 101° East 484 557 33,000 -976 Descending FlightAware UK
Tue 01:40:39 AM 52.2758 -7.0804 102° East 488 562 33,000  Level FlightAware UK
Tue 01:41:09 AM 52.2623 -6.9741 102° East 486 559 33,000  Level FlightAware UK
Tue 01:41:39 AM 52.2488 -6.8682 102° East 490 564 33,000  Level FlightAware UK
Tue 01:42:09 AM 52.2352 -6.7653 102° East 486 559 33,000  Level FlightAware UK
Tue 01:42:39 AM 52.2218 -6.6630 102° East 482 555 33,000  Level FlightAware UK
Tue 01:43:15 AM 52.2054 -6.5403 102° East 482 555 33,000  Level FlightAware UK
Tue 01:43:51 AM 52.1890 -6.4174 102° East 484 557 33,000  Level FlightAware UK
Tue 01:44:21 AM 52.1751 -6.3142 102° East 484 557 33,000  Level FlightAware UK
Tue 01:44:51 AM 52.1638 -6.2096 100° East 486 559 33,000  Level FlightAware UK
Tue 01:45:21 AM 52.1522 -6.1053 100° East 484 557 33,000  Level FlightAware UK
Tue 01:45:51 AM 52.1406 -6.0024 100° East 484 557 33,000 -700 Level FlightAware UK
Tue 01:46:21 AM 52.1290 -5.8996 100° East 476 548 32,300 -1,500 Descending FlightAware UK
Tue 01:46:51 AM 52.1174 -5.7961 100° East 476 548 31,500 -1,600 Descending FlightAware UK
Tue 01:47:21 AM 52.1053 -5.6931 101° East 470 541 30,700 -1,500 Descending FlightAware UK
Tue 01:47:51 AM 52.0932 -5.5911 101° East 474 545 30,000 -1,500 Descending FlightAware UK
Tue 01:48:21 AM 52.0813 -5.4889 101° East 476 548 29,200 -1,500 Descending FlightAware UK
Tue 01:48:51 AM 52.0691 -5.3861 101° East 476 548 28,500 -1,455 Descending FlightAware UK
Tue 01:49:27 AM 52.0544 -5.2622 101° East 480 552 27,600 -1,500 Descending FlightAware UK
Tue 01:50:15 AM 52.0294 -5.0985 104° East 482 555 26,400 -1,538 Descending FlightAware UK
Tue 01:50:45 AM 52.0111 -4.9972 106° East 482 555 25,600 -1,273 Descending FlightAware UK
Tue 01:51:21 AM 51.9897 -4.8800 106° East 444 511 25,000 -500 Descending FlightAware UK
Tue 01:51:57 AM 51.9712 -4.7749 106° East 412 474 25,000 -727 Level FlightAware UK
Tue 01:52:27 AM 51.9564 -4.6893 106° East 406 467 24,200 -1,600 Descending FlightAware UK
Tue 01:52:57 AM 51.9417 -4.6047 106° East 400 460 23,400 -706 Descending FlightAware UK
Tue 01:54:09 AM 51.9055 -4.4055 106° East 398 458 23,000 -235 Descending FlightAware UK
Tue 01:54:39 AM 51.8906 -4.3212 106° East 402 463 23,000 -1,000 Level FlightAware UK
Tue 01:55:33 AM 51.8621 -4.1713 107° East 392 451 21,600 -1,786 Descending FlightAware UK
Tue 01:56:03 AM 51.8465 -4.0908 107° East 388 447 20,500 -2,100 Descending FlightAware UK
Tue 01:56:33 AM 51.8320 -4.0109 106° East 382 440 19,500 -2,000 Descending FlightAware UK
Tue 01:57:03 AM 51.8184 -3.9324 106° East 372 428 18,500 -2,000 Descending FlightAware UK
Tue 01:57:33 AM 51.8041 -3.8561 107° East 368 423 17,500 -1,250 Descending FlightAware UK
Tue 01:58:15 AM 51.7835 -3.7518 108° East 360 414 17,000 -417 Descending FlightAware UK
Tue 01:58:45 AM 51.7692 -3.6778 107° East 364 419 17,000  Level FlightAware UK
Tue 01:59:21 AM 51.7519 -3.5871 107° East 366 421 17,000  Level FlightAware UK
Tue 01:59:51 AM 51.7376 -3.5113 107° East 364 419 17,000  Level FlightAware UK
Tue 02:00:27 AM 51.7203 -3.4199 107° East 364 419 17,000  Level FlightAware UK
Tue 02:00:57 AM 51.7059 -3.3438 107° East 366 421 17,000  Level FlightAware UK
Tue 02:01:33 AM 51.6885 -3.2520 107° East 366 421 17,000  Level FlightAware UK
Tue 02:02:04 AM 51.6735 -3.1750 107° East 364 419 17,000  Level FlightAware UK
Tue 02:02:34 AM 51.6586 -3.0996 108° East 362 417 17,000  Level FlightAware UK
Tue 02:03:04 AM 51.6500 -3.0219 100° East 364 419 17,000  Level FlightAware UK
Tue 02:03:34 AM 51.6435 -2.9422 97° East 364 419 17,000  Level FlightAware UK
Tue 02:04:10 AM 51.6361 -2.8462 97° East 364 419 17,000  Level FlightAware UK
Tue 02:04:40 AM 51.6298 -2.7658 97° East 366 421 17,000  Level FlightAware UK
Tue 02:05:40 AM 51.6155 -2.6052 98° East 366 421 17,000  Level FlightAware UK
Tue 02:06:10 AM 51.6046 -2.5266 103° East 364 419 17,000 -615 Level FlightAware UK
Tue 02:06:58 AM 51.5859 -2.4007 103° East 360 414 16,200 -1,429 Descending FlightAware UK
Tue 02:07:34 AM 51.5717 -2.3101 104° East 354 407 15,000 -2,000 Descending FlightAware UK
Tue 02:08:16 AM 51.5567 -2.2081 103° East 344 396 13,600 -2,000 Descending FlightAware UK
Tue 02:08:46 AM 51.5470 -2.1379 103° East 334 384 12,600 -1,143 Descending FlightAware UK
Tue 02:09:40 AM 51.5303 -2.0142 102° East 322 371 12,000 -316 Descending FlightAware UK
Tue 02:10:40 AM 51.5109 -1.8774 103° East 324 373 12,000  Level FlightAware UK
Tue 02:11:10 AM 51.5015 -1.8080 102° East 324 373 12,000  Level FlightAware UK
Tue 02:11:47 AM 51.4908 -1.7289 102° East 300 345 12,000 -141 Level FlightAware UK
Tue 02:12:35 AM 51.4762 -1.6274 103° East 302 348 11,800 -769 Descending FlightAware UK
Tue 02:13:05 AM 51.4672 -1.5645 103° East 300 345 11,000 -1,000 Descending FlightAware UK
Tue 02:13:53 AM 51.4533 -1.4701 103° East 264 304 10,500 -846 Descending FlightAware UK
Tue 02:14:23 AM 51.4421 -1.4167 109° East 258 297 9,900 -1,500 Descending FlightAware UK
Tue 02:15:05 AM 51.4265 -1.3433 109° East 254 292 8,700 -1,900 Descending FlightAware UK
Tue 02:16:23 AM 51.3881 -1.2213 117° Southeast 242 278 6,100 -1,773 Descending FlightAware UK
Tue 02:17:17 AM 51.3552 -1.1571 129° Southeast 220 253 4,800 -1,529 Descending FlightAware UK
Tue 02:18:05 AM 51.3131 -1.1284 157° South 210 242 3,500 -1,429 Descending FlightAware UK
Tue 02:18:41 AM 51.2881 -1.1031 148° Southeast 182 209 2,800 -786 Descending FlightAware UK
Tue 02:19:29 AM 51.2603 -1.0678 142° Southeast 168 193 2,400 -286 Descending FlightAware UK
Tue 02:20:05 AM 51.2396 -1.0409 141° Southeast 168 193 2,400  Level FlightAware UK
Tue 02:20:59 AM 51.2248 -0.9847 113° Southeast 166 191 2,400 -63 Level FlightAware UK
Tue 02:21:41 AM 51.2259 -0.9350 88° East 168 193 2,300 -286 Descending FlightAware UK
Tue 02:22:23 AM 51.2369 -0.8919 68° East 130 150 2,000 -684 Descending FlightAware UK
Tue 02:23:35 AM 51.2571 -0.8329 61° Northeast 124 143 1,000 -789 Descending FlightAware UK
Tue 02:24:17 AM 51.2677 -0.8004 62° Northeast 124 143 500 -714 Descending FlightAware UK
Tue 02:26:00 AM 51.2667 -0.7667 79° East  Level FlightAware Approximate

Login

Don't have an account? Register now (free) for customized features, flight alerts, and more!